Time;durP1;ratioP1;P1;durP2;ratioP2;P2;SDS_P1;SDS_P2;PMS_P1;PMS_P2;Temp;Humidity;BMP_temperature;BMP_pressure;BME280_temperature;BME280_humidity;BME280_pressure;Samples;Min_cycle;Max_cycle;Signal;HPM_P1;HPM_P2
2023/03/07 17:58:19;;;;;;;26.13;15.60;;;6.30;99.90;;;;;;5087982;27;21363;-66
2023/03/07 18:01:10;;;;;;;27.87;15.50;;;6.20;99.90;;;;;;5052321;28;20439;-68
2023/03/07 18:03:59;;;;;;;23.93;15.77;;;6.30;99.90;;;;;;5074507;28;20224;-67
2023/03/07 18:06:48;;;;;;;26.13;16.03;;;6.20;99.90;;;;;;5072361;28;20238;-66
2023/03/07 18:09:37;;;;;;;25.27;15.47;;;6.20;99.90;;;;;;5063294;28;20216;-66
2023/03/07 18:12:25;;;;;;;28.17;15.87;;;6.20;99.90;;;;;;5076434;28;20220;-66
2023/03/07 18:15:18;;;;;;;24.63;15.73;;;6.20;99.90;;;;;;5054916;28;20224;-66
2023/03/07 18:18:06;;;;;;;24.37;15.60;;;6.20;99.90;;;;;;5051976;28;20321;-65
2023/03/07 18:20:58;;;;;;;26.13;16.47;;;6.20;99.90;;;;;;5072290;28;20552;-65
2023/03/07 18:23:47;;;;;;;24.87;16.20;;;6.20;99.90;;;;;;5073506;28;20227;-65
2023/03/07 18:26:36;;;;;;;27.97;15.53;;;6.20;99.90;;;;;;5068800;28;20205;-66
2023/03/07 18:29:27;;;;;;;26.73;14.93;;;6.20;99.90;;;;;;5072154;28;20262;-65
2023/03/07 18:32:18;;;;;;;23.27;15.80;;;6.20;99.90;;;;;;5048981;28;20291;-71
2023/03/07 18:35:07;;;;;;;24.67;15.23;;;6.30;99.90;;;;;;5049357;28;20794;-65
2023/03/07 18:37:58;;;;;;;25.33;15.80;;;6.30;99.90;;;;;;5048576;28;20811;-64
2023/03/07 18:40:47;;;;;;;26.93;15.83;;;6.20;99.90;;;;;;5049071;28;20344;-65
2023/03/07 18:43:36;;;;;;;26.40;14.73;;;6.20;99.90;;;;;;5058615;28;20703;-65
2023/03/07 18:46:29;;;;;;;24.33;14.73;;;6.20;99.90;;;;;;5055324;28;20399;-64
2023/03/07 18:49:19;;;;;;;22.17;15.17;;;6.20;99.90;;;;;;5053721;28;20307;-65
2023/03/07 18:52:08;;;;;;;20.80;13.77;;;6.30;99.90;;;;;;5049716;28;20319;-65
2023/03/07 18:54:57;;;;;;;26.40;14.83;;;6.20;99.90;;;;;;5066675;28;20231;-66
2023/03/07 18:57:46;;;;;;;22.13;14.10;;;6.20;99.90;;;;;;5075801;28;20286;-66
2023/03/07 19:00:35;;;;;;;21.63;14.23;;;6.20;99.90;;;;;;5058695;28;20251;-66
2023/03/07 19:03:23;;;;;;;20.23;13.57;;;6.20;99.90;;;;;;5062625;28;20218;-65
2023/03/07 19:06:16;;;;;;;23.23;13.47;;;6.20;99.90;;;;;;5058374;28;20225;-65
2023/03/07 19:09:05;;;;;;;21.50;13.57;;;6.20;99.90;;;;;;5053011;28;20264;-66
2023/03/07 19:11:54;;;;;;;22.67;13.10;;;6.20;99.90;;;;;;5040033;28;20245;-66
2023/03/07 19:14:42;;;;;;;21.13;13.13;;;6.30;99.90;;;;;;5043164;28;20265;-65
2023/03/07 19:17:31;;;;;;;22.30;12.97;;;6.30;99.90;;;;;;5041538;28;20229;-65
2023/03/07 19:20:20;;;;;;;21.50;13.43;;;6.20;99.90;;;;;;5038879;28;20222;-64
2023/03/07 19:23:13;;;;;;;24.50;13.03;;;6.30;99.90;;;;;;5043218;28;20297;-64
2023/03/07 19:26:06;;;;;;;21.10;13.13;;;6.30;99.90;;;;;;5035098;28;20225;-66
2023/03/07 19:28:56;;;;;;;21.00;12.93;;;6.30;99.90;;;;;;5045070;28;20699;-59
2023/03/07 19:31:45;;;;;;;21.17;12.50;;;6.30;99.90;;;;;;5041917;28;20283;-61
2023/03/07 19:34:33;;;;;;;21.47;12.53;;;6.30;99.90;;;;;;5028648;28;20331;-59
2023/03/07 19:37:22;;;;;;;19.70;12.57;;;6.30;99.90;;;;;;5043329;28;20230;-58
2023/03/07 19:40:14;;;;;;;19.17;12.33;;;6.30;99.90;;;;;;5049385;28;20224;-62
2023/03/07 19:43:03;;;;;;;17.13;11.40;;;6.30;99.90;;;;;;5053607;28;20237;-62
2023/03/07 19:45:52;;;;;;;18.77;12.23;;;6.30;99.90;;;;;;5046233;28;20756;-61
2023/03/07 19:48:42;;;;;;;16.77;12.00;;;6.30;99.90;;;;;;5037789;28;20256;-61
2023/03/07 19:51:31;;;;;;;17.37;11.97;;;6.30;99.90;;;;;;5048819;28;20502;-61
2023/03/07 19:54:21;;;;;;;18.23;11.57;;;6.30;99.90;;;;;;5055410;28;20346;-62
2023/03/07 19:57:13;;;;;;;18.20;12.43;;;6.20;99.90;;;;;;5058873;28;20227;-61
2023/03/07 20:00:03;;;;;;;20.00;11.90;;;6.20;99.90;;;;;;5062105;28;20223;-62
2023/03/07 20:02:59;;;;;;;17.30;11.37;;;6.20;99.90;;;;;;5056836;28;20213;-62
2023/03/07 20:05:49;;;;;;;18.93;12.20;;;6.30;99.90;;;;;;5043938;28;20224;-62
2023/03/07 20:08:38;;;;;;;17.50;12.10;;;6.20;99.90;;;;;;5054102;28;20736;-62
2023/03/07 20:11:28;;;;;;;18.77;11.20;;;6.20;99.90;;;;;;5057921;28;20227;-63
2023/03/07 20:14:18;;;;;;;17.73;11.50;;;6.20;99.90;;;;;;5059821;28;20598;-61
2023/03/07 20:17:07;;;;;;;17.23;11.40;;;6.20;99.90;;;;;;5060813;28;20238;-62
2023/03/07 20:19:57;;;;;;;19.50;11.67;;;6.20;99.90;;;;;;5041142;28;20224;-62
2023/03/07 20:22:49;;;;;;;20.43;11.57;;;6.30;99.90;;;;;;5038981;28;20224;-61
2023/03/07 20:25:38;;;;;;;17.40;11.23;;;6.30;99.90;;;;;;5039283;28;20247;-62
2023/03/07 20:28:27;;;;;;;15.07;11.00;;;6.40;99.90;;;;;;5044437;28;20228;-62
2023/03/07 20:31:17;;;;;;;16.77;11.37;;;6.30;99.90;;;;;;5043042;28;20852;-61
2023/03/07 20:34:07;;;;;;;15.97;10.60;;;6.30;99.90;;;;;;5045334;28;20307;-62
2023/03/07 20:36:55;;;;;;;16.27;9.97;;;6.30;99.90;;;;;;5040345;28;20339;-61
2023/03/07 20:39:45;;;;;;;17.83;10.43;;;6.30;99.90;;;;;;5026193;28;20722;-61
2023/03/07 20:42:33;;;;;;;14.17;10.43;;;6.30;99.90;;;;;;5036252;28;20228;-61
2023/03/07 20:45:22;;;;;;;13.37;10.27;;;6.30;99.90;;;;;;5037653;28;21624;-61
2023/03/07 20:48:12;;;;;;;16.10;10.47;;;6.30;99.90;;;;;;5040141;28;20238;-63
2023/03/07 20:51:05;;;;;;;15.57;10.03;;;6.30;99.90;;;;;;5034788;28;20739;-63
2023/03/07 20:53:56;;;;;;;16.80;10.67;;;6.30;99.90;;;;;;5039447;28;20774;-61
2023/03/07 20:56:46;;;;;;;14.43;9.80;;;6.20;99.90;;;;;;5032707;28;20305;-62
2023/03/07 20:59:35;;;;;;;14.97;10.20;;;6.20;99.90;;;;;;5039518;28;20226;-61
2023/03/07 21:02:23;;;;;;;14.73;9.67;;;6.10;99.90;;;;;;5038025;28;20649;-61
2023/03/07 21:05:14;;;;;;;14.47;9.47;;;6.20;99.90;;;;;;5022439;28;20220;-62
2023/03/07 21:08:03;;;;;;;16.07;9.97;;;6.10;99.90;;;;;;5037696;28;20314;-62
2023/03/07 21:10:58;;;;;;;15.07;10.50;;;6.20;99.90;;;;;;5038199;28;20718;-61
2023/03/07 21:13:49;;;;;;;13.53;9.23;;;6.20;99.90;;;;;;5037593;28;20233;-61
2023/03/07 21:16:38;;;;;;;13.53;9.10;;;6.10;99.90;;;;;;5032877;28;20234;-62
2023/03/07 21:19:26;;;;;;;12.83;9.30;;;6.10;99.90;;;;;;5035238;28;20225;-61
2023/03/07 21:22:17;;;;;;;15.13;10.53;;;6.10;99.90;;;;;;5057305;28;20220;-61
2023/03/07 21:25:10;;;;;;;14.40;9.77;;;6.10;99.90;;;;;;5057758;28;20227;-61
2023/03/07 21:27:58;;;;;;;12.13;9.20;;;6.10;99.90;;;;;;5055557;28;20229;-61
2023/03/07 21:30:47;;;;;;;15.87;9.97;;;6.10;99.90;;;;;;5056041;28;20317;-61
2023/03/07 21:33:37;;;;;;;14.00;9.60;;;6.10;99.90;;;;;;5057370;28;20233;-64
2023/03/07 21:36:28;;;;;;;15.00;9.57;;;6.10;99.90;;;;;;5056839;28;20216;-66
2023/03/07 21:39:18;;;;;;;15.47;9.70;;;6.10;99.90;;;;;;5059659;28;20236;-64
2023/03/07 21:42:07;;;;;;;14.63;9.70;;;5.90;99.90;;;;;;5056727;28;20588;-64
2023/03/07 21:44:55;;;;;;;15.97;9.13;;;6.00;99.90;;;;;;5058975;28;20342;-65
2023/03/07 21:47:44;;;;;;;13.00;9.03;;;6.00;99.90;;;;;;5056116;28;20256;-66
2023/03/07 21:50:33;;;;;;;14.80;9.67;;;6.00;99.90;;;;;;5034819;28;20825;-66
2023/03/07 21:53:22;;;;;;;13.23;9.67;;;6.00;99.90;;;;;;5034979;28;20681;-65
2023/03/07 21:56:15;;;;;;;14.00;9.40;;;6.00;99.90;;;;;;4993631;28;20236;-67
2023/03/07 21:59:04;;;;;;;15.40;9.43;;;5.90;99.90;;;;;;5025327;28;20670;-66
2023/03/07 22:01:53;;;;;;;13.30;9.70;;;5.90;99.90;;;;;;5044034;28;21180;-65
2023/03/07 22:04:42;;;;;;;12.83;9.37;;;5.90;99.90;;;;;;5039278;28;20268;-66
2023/03/07 22:07:31;;;;;;;14.63;9.27;;;5.90;99.90;;;;;;5031181;28;20995;-66
2023/03/07 22:10:20;;;;;;;13.00;9.60;;;6.00;99.90;;;;;;5038741;28;20215;-67
2023/03/07 22:13:11;;;;;;;13.10;9.20;;;6.00;99.90;;;;;;5045736;28;20968;-66
2023/03/07 22:16:02;;;;;;;13.50;9.43;;;6.10;99.90;;;;;;5061217;28;20228;-66
2023/03/07 22:18:54;;;;;;;13.73;9.20;;;6.10;99.90;;;;;;5055070;28;20761;-66
2023/03/07 22:21:43;;;;;;;13.40;9.17;;;6.00;99.90;;;;;;5055258;28;20216;-64
2023/03/07 22:24:32;;;;;;;12.90;9.40;;;5.90;99.90;;;;;;5051542;28;20224;-66
2023/03/07 22:27:21;;;;;;;11.10;7.93;;;5.90;99.90;;;;;;5039960;28;20234;-66
2023/03/07 22:30:12;;;;;;;10.33;7.90;;;5.70;99.90;;;;;;5039504;28;20233;-66
2023/03/07 22:33:02;;;;;;;10.77;7.47;;;5.60;99.90;;;;;;5050084;28;20212;-65
2023/03/07 22:35:56;;;;;;;9.43;7.10;;;5.40;99.90;;;;;;5067367;28;20221;-64
2023/03/07 22:38:45;;;;;;;10.97;6.73;;;5.40;99.90;;;;;;5056537;28;20278;-66
2023/03/07 22:41:34;;;;;;;8.63;6.73;;;5.40;99.90;;;;;;5051735;28;20267;-67
2023/03/07 22:44:23;;;;;;;8.20;5.80;;;5.10;99.90;;;;;;5064298;28;20232;-65
2023/03/07 22:47:13;;;;;;;8.37;4.07;;;5.10;99.90;;;;;;5061638;28;20235;-65
2023/03/07 22:50:02;;;;;;;3.63;2.37;;;5.10;99.90;;;;;;5055324;28;20224;-65
2023/03/07 22:52:53;;;;;;;4.47;2.67;;;4.80;99.90;;;;;;5051752;28;20223;-66
2023/03/07 22:55:42;;;;;;;2.23;2.00;;;4.50;99.90;;;;;;5063672;28;20566;-66
2023/03/07 22:58:31;;;;;;;3.17;1.90;;;4.50;99.90;;;;;;5053592;28;20227;-65
2023/03/07 23:01:22;;;;;;;3.90;1.60;;;4.60;99.90;;;;;;5058009;28;20345;-66
2023/03/07 23:04:13;;;;;;;3.37;1.67;;;4.50;99.90;;;;;;5049624;28;20232;-67
2023/03/07 23:07:02;;;;;;;3.47;1.50;;;4.30;99.90;;;;;;5045427;28;20315;-66
2023/03/07 23:09:51;;;;;;;3.57;1.40;;;4.20;99.90;;;;;;5057871;28;20229;-66
2023/03/07 23:12:40;;;;;;;3.13;1.70;;;4.20;99.90;;;;;;5053021;28;20224;-65
2023/03/07 23:15:29;;;;;;;3.23;1.83;;;4.20;99.90;;;;;;5046619;28;20228;-65
2023/03/07 23:18:18;;;;;;;3.37;1.70;;;4.30;99.90;;;;;;5059186;28;20389;-67
2023/03/07 23:21:14;;;;;;;4.33;1.90;;;4.30;99.90;;;;;;5068546;28;20223;-65
2023/03/07 23:24:03;;;;;;;3.47;1.87;;;4.20;99.90;;;;;;5063081;28;20231;-65
2023/03/07 23:26:52;;;;;;;4.30;1.67;;;4.30;99.90;;;;;;5060707;28;20369;-66
2023/03/07 23:29:41;;;;;;;5.33;2.07;;;4.30;99.90;;;;;;5052500;28;20232;-66
2023/03/07 23:32:30;;;;;;;2.67;2.00;;;4.20;99.90;;;;;;5056691;28;20220;-67
2023/03/07 23:35:19;;;;;;;3.40;1.90;;;4.30;99.90;;;;;;5054427;28;20232;-67
2023/03/07 23:38:12;;;;;;;3.23;1.93;;;4.10;99.90;;;;;;5063234;28;20243;-67
2023/03/07 23:41:01;;;;;;;2.37;1.80;;;4.20;99.90;;;;;;5061062;28;20262;-67
2023/03/07 23:43:51;;;;;;;5.60;2.23;;;4.10;99.90;;;;;;5050782;28;20321;-67
2023/03/07 23:46:40;;;;;;;4.60;2.00;;;4.10;99.90;;;;;;5059248;28;20318;-67
2023/03/07 23:49:29;;;;;;;4.37;2.07;;;4.10;99.90;;;;;;5061661;28;20216;-67
2023/03/07 23:52:18;;;;;;;4.40;1.83;;;4.10;99.90;;;;;;5056508;28;20670;-68
2023/03/07 23:55:11;;;;;;;5.40;2.10;;;3.90;99.90;;;;;;5058260;28;20223;-69
2023/03/07 23:58:00;;;;;;;3.20;2.13;;;3.90;99.90;;;;;;5041278;28;20330;-68
